Darstellungsparameter: Aktuell verwendete Einstellungen:
Skalierung der Graphiken ... ?
xyx+y,   Skalierungsfaktor:      Skalierung: Modus: x, Faktor: 1
Darstellungszeitraum ... ?
Vom - - bis: - -   Zeitraum: 03.10.2019 - 08.10.2019
Min/Max/Avg-Anzeige ... ?
Zeige MMA aktuell
Zeige MMA Monat
Zeige MMA alles
Zeige --A aktuell
Zeige --A Monat
Zeige --A alles
Keine MMA-Anzeige
MMA:
Average (ber die Originaldaten)
MMA-Basis: 03.10.2019 - 08.10.2019
Quicknavigation für Darstellung... ?
Tage:      1T, 2T, 3T, 5T -1T -2T -3T -5T +1T +2T +3T +5T
Wochen: 1W, 2W, 3W -1W -2W -3W +1W +2W +3W
Monate: 1M, 3M, 6M -1M -3M -6M +1M +3M +6M
Jahre:    1J, 3J, 5J, 10J -1J -3J -5J -10J +1J +3J +5J +10J
Nutze für die Darstellung ... ?
Originaldaten oder ...
Mittelwerte Minima Maxima auf...
Stundenbasis Tagesbasis Wochenbasis
Monatsbasis Jahresbasis      Datenbasis: Mittelwerte auf Stundenbasis
Darstellen als:
Statistik (Auto) Statistik J:M      Darstellung:
Zur Graphik,    zurück zur Übersicht aller Sensoren.
 
Tabellarische Datenbersicht: ?
 
Sensor: Nr:Datum:Temp:Abs-Feuchte:Windchill:Wind:
Aussen-T/F 1 03-10-2019 00:00:00 9.33333 C 7.66 g/m*3 9.33 C 4.41667 km/h
2 03-10-2019 01:00:00 9.25833 C 7.75 g/m*3 9.26 C 4.68333 km/h
3 03-10-2019 02:00:00 9.21667 C 7.73 g/m*3 9.22 C 3.73333 km/h
4 03-10-2019 03:00:00 8.525 C 7.52 g/m*3 8.53 C 1.86667 km/h
5 03-10-2019 04:00:00 7.63333 C 7.29 g/m*3 7.63 C 1.33333 km/h
6 03-10-2019 05:00:00 7.94167 C 7.49 g/m*3 7.94 C 4.41667 km/h
7 03-10-2019 06:00:00 7.45 C 7.26 g/m*3 7.45 C 1.2 km/h
8 03-10-2019 07:00:00 7.2 C 7.29 g/m*3 7.2 C 1.6 km/h
9 03-10-2019 08:00:00 7.74167 C 7.49 g/m*3 7.74 C 4.96667 km/h
10 03-10-2019 09:00:00 9.34167 C 7.9 g/m*3 8.53 C 6.70833 km/h
11 03-10-2019 10:00:00 10.36667 C 8.23 g/m*3 9.45 C 7.925 km/h
12 03-10-2019 11:00:00 12.23333 C 8.75 g/m*3 12.23 C 8.725 km/h
13 03-10-2019 12:00:00 12.55833 C 9.02 g/m*3 12.56 C 6.16667 km/h
14 03-10-2019 13:00:00 12.225 C 9.57 g/m*3 12.23 C 0.13333 km/h
15 03-10-2019 14:00:00 11.68333 C 9.65 g/m*3 11.68 C 0.8 km/h
16 03-10-2019 15:00:00 11.88333 C 10.01 g/m*3 11.88 C 0.8 km/h
17 03-10-2019 16:00:00 12.15833 C 10.02 g/m*3 12.16 C 2.41667 km/h
18 03-10-2019 17:00:00 11.75833 C 9.81 g/m*3 11.76 C 0 km/h
19 03-10-2019 18:00:00 10.81667 C 9.3 g/m*3 10.82 C 1.06667 km/h
20 03-10-2019 19:00:00 9.90833 C 8.84 g/m*3 9.91 C 0.8 km/h
21 03-10-2019 20:00:00 9.36667 C 8.58 g/m*3 9.37 C 0 km/h
22 03-10-2019 21:00:00 9.00833 C 8.45 g/m*3 9.01 C 0 km/h
23 03-10-2019 22:00:00 8.625 C 8.26 g/m*3 8.63 C 0 km/h
24 03-10-2019 23:00:00 8.375 C 8.13 g/m*3 8.38 C 0 km/h
25 04-10-2019 00:00:00 8.38333 C 8.14 g/m*3 8.38 C 0 km/h
Sensor: Nr:Datum:Temp:Abs-Feuchte:Windchill:Wind:
Aussen-T/F 26 04-10-2019 01:00:00 8.21667 C 8.07 g/m*3 8.22 C 0.13333 km/h
27 04-10-2019 02:00:00 8.19167 C 8.08 g/m*3 8.19 C 0 km/h
28 04-10-2019 03:00:00 8.05833 C 8.04 g/m*3 8.06 C 0 km/h
29 04-10-2019 04:00:00 7.71667 C 7.86 g/m*3 7.72 C 0 km/h
30 04-10-2019 05:00:00 7.90833 C 7.97 g/m*3 7.91 C 0 km/h
31 04-10-2019 06:00:00 7.96667 C 8 g/m*3 7.97 C 0.93333 km/h
32 04-10-2019 07:00:00 8.13333 C 8.09 g/m*3 8.13 C 2.68333 km/h
33 04-10-2019 08:00:00 8.45833 C 8.26 g/m*3 8.46 C 1.06667 km/h
34 04-10-2019 09:00:00 8.70833 C 8.39 g/m*3 8.71 C 0.8 km/h
35 04-10-2019 10:00:00 9.125 C 8.61 g/m*3 9.13 C 3.875 km/h
36 04-10-2019 11:00:00 9.75833 C 8.88 g/m*3 9.26 C 5.75833 km/h
37 04-10-2019 12:00:00 10.65 C 9.33 g/m*3 10.65 C 3.06667 km/h
38 04-10-2019 13:00:00 11.25833 C 9.61 g/m*3 11.26 C 2 km/h
39 04-10-2019 14:00:00 13.03333 C 10.33 g/m*3 13.03 C 7.53333 km/h
40 04-10-2019 15:00:00 13.81667 C 10.48 g/m*3 13.82 C 6.98333 km/h
41 04-10-2019 16:00:00 14.05833 C 10.83 g/m*3 14.06 C 1.875 km/h
42 04-10-2019 17:00:00 13.36667 C 10.78 g/m*3 13.37 C 2.13333 km/h
43 04-10-2019 18:00:00 12.35833 C 10.26 g/m*3 12.36 C 1.46667 km/h
44 04-10-2019 19:00:00 11.70833 C 9.98 g/m*3 11.71 C 1.06667 km/h
45 04-10-2019 20:00:00 11.63333 C 10 g/m*3 11.63 C 2.53333 km/h
46 04-10-2019 21:00:00 11.65833 C 10.01 g/m*3 11.66 C 5.775 km/h
47 04-10-2019 22:00:00 11.69167 C 9.97 g/m*3 11.69 C 4.29167 km/h
48 04-10-2019 23:00:00 11.71667 C 9.99 g/m*3 11.72 C 5.9 km/h
49 05-10-2019 00:00:00 11.96667 C 9.86 g/m*3 11.97 C 7.10833 km/h
50 05-10-2019 01:00:00 12.09167 C 9.86 g/m*3 12.09 C 6.85833 km/h
Sensor: Nr:Datum:Temp:Abs-Feuchte:Windchill:Wind:
Aussen-T/F 51 05-10-2019 02:00:00 12.225 C 9.8 g/m*3 12.23 C 7.64167 km/h
52 05-10-2019 03:00:00 12.3 C 9.94 g/m*3 12.3 C 3.20833 km/h
53 05-10-2019 04:00:00 11.55 C 9.64 g/m*3 11.55 C 5.90833 km/h
54 05-10-2019 05:00:00 10.75833 C 9.21 g/m*3 10.24 C 6.44167 km/h
55 05-10-2019 06:00:00 10.20833 C 8.93 g/m*3 10.21 C 2.275 km/h
56 05-10-2019 07:00:00 9.98333 C 8.77 g/m*3 9.98 C 3.6 km/h
57 05-10-2019 08:00:00 9.81667 C 8.54 g/m*3 9.82 C 2.26667 km/h
58 05-10-2019 09:00:00 10.18333 C 8.62 g/m*3 10.18 C 4.94167 km/h
59 05-10-2019 10:00:00 10.55833 C 8.61 g/m*3 9.6 C 8.325 km/h
60 05-10-2019 11:00:00 10.70833 C 8.11 g/m*3 9.72 C 8.60833 km/h
61 05-10-2019 12:00:00 11.2 C 8.17 g/m*3 11.2 C 6.575 km/h
62 05-10-2019 13:00:00 11.9 C 8.22 g/m*3 11.9 C 4.26667 km/h
63 05-10-2019 14:00:00 11.89167 C 8.27 g/m*3 11.89 C 2.40833 km/h
64 05-10-2019 15:00:00 12.23333 C 8.36 g/m*3 12.23 C 0.93333 km/h
65 05-10-2019 16:00:00 12.3 C 8.75 g/m*3 12.3 C 0.66667 km/h
66 05-10-2019 17:00:00 12.06667 C 9 g/m*3 12.07 C 0.13333 km/h
67 05-10-2019 18:00:00 11.125 C 8.64 g/m*3 11.13 C 0 km/h
68 05-10-2019 19:00:00 9.50833 C 7.87 g/m*3 9.51 C 0.4 km/h
69 05-10-2019 20:00:00 8.35833 C 7.46 g/m*3 8.36 C 1.33333 km/h
70 05-10-2019 21:00:00 7.875 C 7.44 g/m*3 7.88 C 0 km/h
71 05-10-2019 22:00:00 7.43333 C 7.44 g/m*3 7.43 C 0 km/h
72 05-10-2019 23:00:00 7.35 C 7.45 g/m*3 7.35 C 0 km/h
73 06-10-2019 00:00:00 7.13333 C 7.36 g/m*3 7.13 C 0 km/h
74 06-10-2019 01:00:00 6.55 C 7.11 g/m*3 6.55 C 0 km/h
75 06-10-2019 02:00:00 6.7 C 7.26 g/m*3 6.7 C 0 km/h
Sensor: Nr:Datum:Temp:Abs-Feuchte:Windchill:Wind:
Aussen-T/F 76 06-10-2019 03:00:00 7.05833 C 7.47 g/m*3 7.06 C 0 km/h
77 06-10-2019 04:00:00 7.2 C 7.54 g/m*3 7.2 C 0 km/h
78 06-10-2019 05:00:00 7.18333 C 7.53 g/m*3 7.18 C 0 km/h
79 06-10-2019 06:00:00 7.38333 C 7.63 g/m*3 7.38 C 0 km/h
80 06-10-2019 07:00:00 7.65833 C 7.76 g/m*3 7.66 C 0 km/h
81 06-10-2019 08:00:00 7.84167 C 7.86 g/m*3 7.84 C 0 km/h
82 06-10-2019 09:00:00 8.31667 C 8.1 g/m*3 8.32 C 0 km/h
83 06-10-2019 10:00:00 8.63333 C 8.22 g/m*3 8.63 C 0.8 km/h
84 06-10-2019 11:00:00 8.55833 C 8.21 g/m*3 8.56 C 3.6 km/h
85 06-10-2019 12:00:00 8.78333 C 8.35 g/m*3 8.78 C 0.26667 km/h
86 06-10-2019 13:00:00 9.06667 C 8.5 g/m*3 9.07 C 0.66667 km/h
87 06-10-2019 14:00:00 9.25 C 8.6 g/m*3 9.25 C 1.06667 km/h
88 06-10-2019 15:00:00 9.45833 C 8.72 g/m*3 9.46 C 0.53333 km/h
89 06-10-2019 16:00:00 9.61667 C 8.8 g/m*3 9.62 C 1.86667 km/h
90 06-10-2019 17:00:00 9.51667 C 8.75 g/m*3 9.52 C 0.53333 km/h
91 06-10-2019 18:00:00 9.325 C 8.64 g/m*3 9.32 C 3.225 km/h
92 06-10-2019 19:00:00 9.15 C 8.57 g/m*3 9.15 C 3.60833 km/h
93 06-10-2019 20:00:00 9.1 C 8.61 g/m*3 9.1 C 0.4 km/h
94 06-10-2019 21:00:00 9.04167 C 8.57 g/m*3 9.04 C 1.74167 km/h
95 06-10-2019 22:00:00 8.81667 C 8.45 g/m*3 8.82 C 1.875 km/h
96 06-10-2019 23:00:00 8.83333 C 8.46 g/m*3 8.83 C 0 km/h
97 07-10-2019 00:00:00 8.9 C 8.5 g/m*3 8.9 C 0.26667 km/h
98 07-10-2019 01:00:00 8.725 C 8.4 g/m*3 8.73 C 2.95 km/h
99 07-10-2019 02:00:00 8.69167 C 8.38 g/m*3 8.69 C 0.13333 km/h
100 07-10-2019 03:00:00 8.60833 C 8.34 g/m*3 8.61 C 1.33333 km/h
Sensor: Nr:Datum:Temp:Abs-Feuchte:Windchill:Wind:
Aussen-T/F 101 07-10-2019 04:00:00 8.7 C 8.39 g/m*3 8.7 C 0 km/h
102 07-10-2019 05:00:00 8.64167 C 8.36 g/m*3 8.64 C 1.86667 km/h
103 07-10-2019 06:00:00 8.6 C 8.34 g/m*3 8.6 C 0.13333 km/h
104 07-10-2019 07:00:00 8.6 C 8.34 g/m*3 8.6 C 0 km/h
105 07-10-2019 08:00:00 8.66667 C 8.37 g/m*3 8.67 C 0 km/h
106 07-10-2019 09:00:00 8.83333 C 8.46 g/m*3 8.83 C 0.26667 km/h
107 07-10-2019 10:00:00 9.08333 C 8.6 g/m*3 9.08 C 1.06667 km/h
108 07-10-2019 11:00:00 9.65 C 8.88 g/m*3 9.65 C 3.34167 km/h
109 07-10-2019 12:00:00 10.51667 C 9.05 g/m*3 10.52 C 2.4 km/h
110 07-10-2019 13:00:00 10.84167 C 9 g/m*3 10.84 C 2.675 km/h
111 07-10-2019 14:00:00 11.46667 C 9.1 g/m*3 11.47 C 5.89167 km/h
112 07-10-2019 15:00:00 12.225 C 9.43 g/m*3 12.23 C 1.86667 km/h
113 07-10-2019 16:00:00 12.29167 C 9.53 g/m*3 12.29 C 1.33333 km/h
114 07-10-2019 17:00:00 12.3 C 9.56 g/m*3 12.3 C 2.4 km/h
115 07-10-2019 18:00:00 11.86667 C 9.56 g/m*3 11.87 C 0.53333 km/h
116 07-10-2019 19:00:00 11.09167 C 9.35 g/m*3 11.09 C 0 km/h
117 07-10-2019 20:00:00 10.725 C 9.32 g/m*3 10.73 C 0 km/h
118 07-10-2019 21:00:00 10.975 C 9.58 g/m*3 10.98 C 0 km/h
119 07-10-2019 22:00:00 11.1 C 9.67 g/m*3 11.1 C 0.26667 km/h
120 07-10-2019 23:00:00 11.1 C 9.67 g/m*3 11.1 C 0.26667 km/h
121 08-10-2019 00:00:00 11.11667 C 9.75 g/m*3 11.12 C 0.53333 km/h
122 08-10-2019 01:00:00 11.25 C 9.79 g/m*3 11.25 C 1.33333 km/h
123 08-10-2019 02:00:00 11.44167 C 9.88 g/m*3 11.44 C 0.93333 km/h
124 08-10-2019 03:00:00 11.75833 C 10.05 g/m*3 11.76 C 3.75833 km/h
125 08-10-2019 04:00:00 11.9 C 10.03 g/m*3 11.9 C 3.61667 km/h
Sensor: Nr:Datum:Temp:Abs-Feuchte:Windchill:Wind:
Aussen-T/F 126 08-10-2019 05:00:00 12.31667 C 10 g/m*3 12.32 C 8.46667 km/h
127 08-10-2019 06:00:00 12.18333 C 9.96 g/m*3 12.18 C 4.3 km/h
128 08-10-2019 07:00:00 11.79167 C 9.97 g/m*3 11.79 C 2.53333 km/h
129 08-10-2019 08:00:00 11.825 C 10.1 g/m*3 11.83 C 5.775 km/h
130 08-10-2019 09:00:00 12.03333 C 10.25 g/m*3 12.03 C 10.05833 km/h
131 08-10-2019 10:00:00 12.49167 C 10.45 g/m*3 12.49 C 12.76667 km/h
132 08-10-2019 11:00:00 13.5 C 10.89 g/m*3 13.5 C 13.7 km/h
133 08-10-2019 12:00:00 13.85833 C 10.95 g/m*3 13.86 C 14.36667 km/h
134 08-10-2019 13:00:00 14.225 C 11.19 g/m*3 14.23 C 9.93333 km/h
135 08-10-2019 14:00:00 14.6 C 11.43 g/m*3 14.6 C 10.075 km/h
136 08-10-2019 15:00:00 14.48333 C 11.47 g/m*3 14.48 C 9.55 km/h
137 08-10-2019 16:00:00 14.225 C 11.56 g/m*3 14.23 C 6.70833 km/h
138 08-10-2019 17:00:00 14.05833 C 11.55 g/m*3 14.06 C 3.61667 km/h
139 08-10-2019 18:00:00 13.86667 C 11.49 g/m*3 13.87 C 3.09167 km/h
140 08-10-2019 19:00:00 13.79167 C 11.43 g/m*3 13.79 C 1.875 km/h
141 08-10-2019 20:00:00 13.55 C 11.3 g/m*3 13.55 C 0.53333 km/h
142 08-10-2019 21:00:00 13.225 C 11.14 g/m*3 13.23 C 0.13333 km/h
143 08-10-2019 22:00:00 12.825 C 10.88 g/m*3 12.83 C 0 km/h
144 08-10-2019 23:00:00 11.68333 C 10.05 g/m*3 11.68 C 0.53333 km/h

Maximal/Minimal-Werte vom 03.10.2019 - 08.10.2019

Sensor Min Max Avg
Temp
(Aussen-T/F)
6.4 °C
06-10-2019  01:30:00
14.7 °C
08-10-2019  14:35:00
10.33 °C
Abs-Feuchte
(Aussen-T/F)
7.11 g/m*3
06-10-2019  01:00:00
11.56 g/m*3
08-10-2019  16:00:00
8.92 g/m*3
Windchill
(Aussen-T/F)
6.55 C
06-10-2019  01:00:00
14.6 C
08-10-2019  14:00:00
10.23 C

Die Daten stammen von einer Davis Vantage Pro 2 Wetter-Station und werden unter Linux mit der Software wview2wettercgi und aufbereitet. Alle Angaben erfolgen ohne Gewähr für ihre Vollständigkeit oder Richtigkeit.
Kontakt: Rainer Krienke krienke@uni-koblenz.de . Meine Webseiten an der Uni Koblenz oder privat.
Version: $Revision: 0.78 $